createdAt,value
2018-10-03T00:00:16.404Z,2.40
2018-10-03T00:02:19.600Z,2.33
2018-10-03T00:04:23.196Z,3.20
2018-10-03T00:06:26.723Z,2.90
2018-10-03T00:08:30.463Z,3.30
2018-10-03T00:10:34.005Z,2.77
2018-10-03T00:12:37.380Z,2.10
2018-10-03T00:14:40.692Z,2.73
2018-10-03T00:16:44.392Z,2.60
2018-10-03T00:18:47.585Z,3.00
2018-10-03T00:20:50.780Z,3.10
2018-10-03T00:22:54.023Z,2.70
2018-10-03T00:24:57.272Z,2.40
2018-10-03T00:27:00.732Z,2.37
2018-10-03T00:29:04.649Z,2.08
2018-10-03T00:31:08.125Z,2.33
2018-10-03T00:33:11.592Z,2.35
2018-10-03T00:35:15.120Z,2.50
2018-10-03T00:37:18.628Z,2.50
2018-10-03T00:39:22.404Z,2.25
2018-10-03T00:41:25.933Z,2.30
2018-10-03T00:43:29.296Z,2.15
2018-10-03T00:45:32.577Z,2.72
2018-10-03T00:47:36.213Z,2.20
2018-10-03T00:49:39.700Z,2.42
2018-10-03T00:51:43.232Z,2.58
2018-10-03T00:53:46.717Z,2.60
2018-10-03T00:55:50.187Z,2.47
2018-10-03T00:57:53.541Z,2.53
2018-10-03T00:59:57.508Z,2.60
2018-10-03T01:02:00.715Z,2.60
2018-10-03T01:04:04.192Z,2.62
2018-10-03T01:06:07.993Z,2.50
2018-10-03T01:08:11.527Z,2.60
2018-10-03T01:10:14.952Z,1.52
2018-10-03T01:12:18.158Z,2.50
2018-10-03T01:14:21.873Z,2.45
2018-10-03T01:16:25.745Z,2.52
2018-10-03T01:18:29.717Z,2.72
2018-10-03T01:20:33.180Z,2.77
2018-10-03T01:22:36.999Z,2.67
2018-10-03T01:24:40.841Z,3.75
2018-10-03T01:26:44.037Z,3.15
2018-10-03T01:28:47.703Z,3.37
2018-10-03T01:30:51.356Z,4.10
2018-10-03T01:32:54.545Z,2.90
2018-10-03T01:34:58.048Z,2.80
2018-10-03T01:37:01.706Z,3.40
2018-10-03T01:39:07.458Z,3.40
2018-10-03T01:41:11.148Z,3.27
2018-10-03T01:43:14.647Z,3.05
2018-10-03T01:45:18.262Z,3.20
2018-10-03T01:47:21.468Z,3.50
2018-10-03T01:49:24.648Z,3.40
2018-10-03T01:51:28.444Z,3.42
2018-10-03T01:53:35.840Z,3.20
2018-10-03T01:55:39.596Z,2.80
2018-10-03T01:57:43.104Z,2.42
2018-10-03T01:59:46.319Z,2.85
2018-10-03T02:01:49.560Z,2.83
2018-10-03T02:03:53.488Z,2.30
2018-10-03T02:05:57.320Z,3.60
2018-10-03T02:08:00.772Z,2.22
2018-10-03T02:10:03.988Z,2.95
2018-10-03T02:12:07.549Z,2.40
2018-10-03T02:14:11.029Z,3.35
2018-10-03T02:16:14.522Z,2.77
2018-10-03T02:18:17.709Z,3.40
2018-10-03T02:20:20.897Z,3.20
2018-10-03T02:22:24.115Z,2.80
2018-10-03T02:24:27.601Z,3.45
2018-10-03T02:26:31.057Z,2.90
2018-10-03T02:28:34.584Z,2.70
2018-10-03T02:30:38.066Z,2.77
2018-10-03T02:32:41.730Z,2.85
2018-10-03T02:34:45.442Z,3.60
2018-10-03T02:36:48.896Z,3.50
2018-10-03T02:38:52.444Z,3.52
2018-10-03T02:40:56.213Z,3.17
2018-10-03T02:43:00.004Z,3.60
2018-10-03T02:45:03.504Z,3.17
2018-10-03T02:47:07.241Z,3.80
2018-10-03T02:49:10.756Z,3.60
2018-10-03T02:51:14.559Z,3.30
2018-10-03T02:53:17.985Z,3.10
2018-10-03T02:55:21.207Z,2.60
2018-10-03T02:57:24.477Z,2.90
2018-10-03T02:59:28.507Z,3.67
2018-10-03T03:01:31.764Z,3.10
2018-10-03T03:03:35.373Z,2.65
2018-10-03T03:05:39.077Z,2.72
2018-10-03T03:07:42.859Z,2.85
2018-10-03T03:09:46.084Z,3.85
2018-10-03T03:11:49.302Z,2.40
2018-10-03T03:13:53.101Z,2.40
2018-10-03T03:15:56.573Z,2.80
2018-10-03T03:18:00.352Z,2.27
2018-10-03T03:20:04.034Z,2.30
2018-10-03T03:22:07.297Z,3.03
2018-10-03T03:24:10.844Z,2.72
2018-10-03T03:26:15.034Z,2.20
2018-10-03T03:28:18.852Z,2.17
2018-10-03T03:30:22.349Z,2.83
2018-10-03T03:32:27.073Z,2.60
2018-10-03T03:34:30.268Z,2.70
2018-10-03T03:36:33.988Z,2.80
2018-10-03T03:38:37.483Z,2.75
2018-10-03T03:40:40.664Z,2.63
2018-10-03T03:42:43.888Z,3.30
2018-10-03T03:44:47.346Z,2.80
2018-10-03T03:46:50.835Z,3.00
2018-10-03T03:48:54.301Z,2.58
2018-10-03T03:50:57.598Z,3.00
2018-10-03T03:53:01.237Z,2.25
2018-10-03T03:55:04.791Z,4.15
2018-10-03T03:57:07.996Z,2.77
2018-10-03T03:59:11.200Z,2.33
2018-10-03T04:01:14.781Z,2.92
2018-10-03T04:03:18.277Z,2.92
2018-10-03T04:05:21.515Z,2.87
2018-10-03T04:07:24.700Z,2.77
2018-10-03T04:09:28.194Z,3.30
2018-10-03T04:11:31.663Z,2.90
2018-10-03T04:13:35.120Z,2.60
2018-10-03T04:15:38.414Z,2.60
2018-10-03T04:17:42.084Z,2.70
2018-10-03T04:19:45.548Z,3.20
2018-10-03T04:21:49.160Z,2.92
2018-10-03T04:23:52.684Z,2.50
2018-10-03T04:26:02.926Z,3.00
2018-10-03T04:28:07.052Z,3.00
2018-10-03T04:30:10.520Z,2.70
2018-10-03T04:32:13.715Z,3.23
2018-10-03T04:34:16.936Z,3.00
2018-10-03T04:36:20.131Z,2.67
2018-10-03T04:38:23.362Z,2.60
2018-10-03T04:40:27.100Z,2.60
2018-10-03T04:42:30.585Z,2.33
2018-10-03T04:44:33.835Z,3.00
2018-10-03T04:46:37.052Z,3.63
2018-10-03T04:48:40.546Z,3.15
2018-10-03T04:50:44.004Z,2.90
2018-10-03T04:52:48.055Z,2.80
2018-10-03T04:54:52.093Z,3.60
2018-10-03T04:56:55.541Z,3.22
2018-10-03T04:58:59.009Z,2.27
2018-10-03T05:01:02.217Z,2.67
2018-10-03T05:03:06.055Z,2.98
2018-10-03T05:05:09.738Z,2.90
2018-10-03T05:07:13.237Z,3.10
2018-10-03T05:09:16.743Z,2.52
2018-10-03T05:11:20.808Z,3.87
2018-10-03T05:13:24.374Z,3.60
2018-10-03T05:15:27.853Z,2.90
2018-10-03T05:17:31.352Z,2.90
2018-10-03T05:19:34.903Z,3.27
2018-10-03T05:21:38.786Z,4.00
2018-10-03T05:23:42.006Z,3.47
2018-10-03T05:25:45.197Z,3.27
2018-10-03T05:27:48.402Z,3.77
2018-10-03T05:29:52.392Z,3.02
2018-10-03T05:31:55.580Z,2.60
2018-10-03T05:33:58.853Z,3.27
2018-10-03T05:36:02.400Z,3.10
2018-10-03T05:38:05.948Z,3.00
2018-10-03T05:40:09.155Z,3.00
2018-10-03T05:42:12.582Z,2.52
2018-10-03T05:44:16.040Z,3.12
2018-10-03T05:46:19.745Z,3.27
2018-10-03T05:48:23.492Z,2.33
2018-10-03T05:50:27.469Z,2.60
2018-10-03T05:52:31.138Z,2.60
2018-10-03T05:54:34.345Z,2.95
2018-10-03T05:56:37.812Z,3.30
2018-10-03T05:58:41.288Z,3.62
2018-10-03T06:00:44.962Z,2.90
2018-10-03T06:02:48.561Z,3.50
2018-10-03T06:04:52.320Z,2.50
2018-10-03T06:06:55.607Z,2.40
2018-10-03T06:08:59.114Z,3.40
2018-10-03T06:11:03.268Z,2.30
2018-10-03T06:13:07.004Z,3.08
2018-10-03T06:15:10.566Z,2.37
2018-10-03T06:17:14.401Z,2.50
2018-10-03T06:19:17.612Z,2.80
2018-10-03T06:21:21.160Z,2.50
2018-10-03T06:23:26.325Z,2.45
2018-10-03T06:25:36.208Z,2.42
2018-10-03T06:27:39.455Z,2.23
2018-10-03T06:29:43.456Z,2.40
2018-10-03T06:31:47.140Z,2.35
2018-10-03T06:33:50.630Z,2.80
2018-10-03T06:35:54.351Z,2.80
2018-10-03T06:37:57.856Z,3.10
2018-10-03T06:40:01.401Z,2.70
2018-10-03T06:42:04.732Z,2.30
2018-10-03T06:44:08.369Z,2.37
2018-10-03T06:46:11.940Z,2.67
2018-10-03T06:48:15.428Z,2.40
2018-10-03T06:50:18.907Z,2.83
2018-10-03T06:52:22.400Z,3.50
2018-10-03T06:54:25.648Z,2.77
2018-10-03T06:56:29.326Z,1.70
2018-10-03T06:58:32.706Z,2.30
2018-10-03T07:00:36.096Z,2.30
2018-10-03T07:02:39.312Z,2.40
2018-10-03T07:04:42.780Z,2.65
2018-10-03T07:06:47.072Z,1.82
2018-10-03T07:08:50.528Z,2.65
2018-10-03T07:10:54.033Z,2.25
2018-10-03T07:12:57.765Z,1.70
2018-10-03T07:15:01.104Z,3.20
2018-10-03T07:17:04.294Z,2.60
2018-10-03T07:19:07.828Z,1.80
2018-10-03T07:21:11.316Z,2.25
2018-10-03T07:23:14.759Z,1.98
2018-10-03T07:25:18.313Z,2.60
2018-10-03T07:27:21.818Z,1.90
2018-10-03T07:29:25.433Z,1.50
2018-10-03T07:31:29.337Z,2.70
2018-10-03T07:33:32.805Z,2.30
2018-10-03T07:35:36.010Z,2.17
2018-10-03T07:37:40.317Z,2.15
2018-10-03T07:39:43.812Z,2.72
2018-10-03T07:41:47.344Z,2.20
2018-10-03T07:43:50.572Z,1.62
2018-10-03T07:45:53.766Z,1.90
2018-10-03T07:47:56.965Z,2.08
2018-10-03T07:50:00.760Z,2.10
2018-10-03T07:52:04.212Z,2.00
2018-10-03T07:54:07.672Z,1.60
2018-10-03T07:56:12.075Z,2.50
2018-10-03T07:58:15.719Z,1.77
2018-10-03T08:00:26.313Z,1.85
2018-10-03T08:02:29.616Z,2.30
2018-10-03T08:04:33.076Z,1.87
2018-10-03T08:06:36.533Z,2.72
2018-10-03T08:08:40.324Z,2.02
2018-10-03T08:10:44.195Z,2.10
2018-10-03T08:12:47.372Z,2.27
2018-10-03T08:14:50.815Z,1.97
2018-10-03T08:16:54.465Z,1.52
2018-10-03T08:18:57.930Z,2.10
2018-10-03T08:21:01.603Z,1.52
2018-10-03T08:23:05.432Z,2.10
2018-10-03T08:25:08.972Z,1.97
2018-10-03T08:27:12.474Z,2.00
2018-10-03T08:29:16.158Z,2.07
2018-10-03T08:31:19.658Z,1.60
2018-10-03T08:33:23.390Z,1.47
2018-10-03T08:35:27.140Z,2.33
2018-10-03T08:37:30.672Z,2.20
2018-10-03T08:39:33.888Z,1.75
2018-10-03T08:41:37.156Z,2.00
2018-10-03T08:43:40.360Z,2.27
2018-10-03T08:45:44.167Z,2.00
2018-10-03T08:47:47.612Z,2.65
2018-10-03T08:49:51.069Z,1.27
2018-10-03T08:51:54.780Z,1.50
2018-10-03T08:53:58.413Z,1.90
2018-10-03T08:56:01.742Z,2.00
2018-10-03T08:58:04.969Z,1.90
2018-10-03T09:00:09.136Z,2.00
2018-10-03T09:02:13.048Z,2.00
2018-10-03T09:04:16.851Z,2.20
2018-10-03T09:06:20.572Z,2.30
2018-10-03T09:08:23.752Z,2.30
2018-10-03T09:10:27.307Z,2.40
2018-10-03T09:12:30.896Z,1.65
2018-10-03T09:14:34.690Z,2.20
2018-10-03T09:16:38.410Z,2.05
2018-10-03T09:18:41.870Z,1.60
2018-10-03T09:20:45.480Z,1.77
2018-10-03T09:22:48.993Z,2.00
2018-10-03T09:24:52.488Z,1.50
2018-10-03T09:26:56.004Z,2.30
2018-10-03T09:28:59.693Z,1.30
2018-10-03T09:31:03.200Z,1.80
2018-10-03T09:33:06.404Z,1.30
2018-10-03T09:35:09.630Z,1.70
2018-10-03T09:37:12.828Z,1.90
2018-10-03T09:39:16.041Z,2.10
2018-10-03T09:41:19.292Z,1.40
2018-10-03T09:43:22.484Z,1.50
2018-10-03T09:45:26.161Z,1.60
2018-10-03T09:47:29.804Z,1.30
2018-10-03T09:49:32.996Z,1.92
2018-10-03T09:51:36.452Z,1.50
2018-10-03T09:53:39.657Z,1.50
2018-10-03T09:55:42.861Z,1.67
2018-10-03T09:57:46.521Z,1.70
2018-10-03T09:59:49.976Z,1.87
2018-10-03T10:01:53.426Z,1.80
2018-10-03T10:03:56.984Z,1.87
2018-10-03T10:06:00.644Z,2.00
2018-10-03T10:08:04.128Z,1.92
2018-10-03T10:10:07.376Z,2.00
2018-10-03T10:12:11.052Z,1.77
2018-10-03T10:14:14.761Z,1.52
2018-10-03T10:16:18.573Z,1.63
2018-10-03T10:18:22.433Z,1.92
2018-10-03T10:20:25.928Z,1.50
2018-10-03T10:22:29.500Z,1.80
2018-10-03T10:26:42.759Z,1.42
2018-10-03T10:28:46.236Z,1.50
2018-10-03T10:30:49.449Z,1.87
2018-10-03T10:32:52.724Z,1.60
2018-10-03T10:34:56.320Z,2.10
2018-10-03T10:36:59.780Z,1.80
2018-10-03T10:39:03.520Z,1.60
2018-10-03T10:41:07.068Z,1.90
2018-10-03T10:43:10.703Z,1.50
2018-10-03T10:45:14.532Z,1.70
2018-10-03T10:47:18.077Z,1.40
2018-10-03T10:49:21.317Z,1.63
2018-10-03T10:51:24.590Z,2.03
2018-10-03T10:53:27.756Z,1.50
2018-10-03T10:55:30.965Z,1.20
2018-10-03T10:57:34.211Z,2.27
2018-10-03T10:59:37.440Z,1.30
2018-10-03T11:01:41.532Z,1.77
2018-10-03T11:03:45.050Z,1.60
2018-10-03T11:05:48.838Z,1.90
2018-10-03T11:07:52.496Z,1.12
2018-10-03T11:09:55.988Z,1.90
2018-10-03T11:11:59.449Z,1.60
2018-10-03T11:14:02.973Z,2.00
2018-10-03T11:16:06.640Z,1.92
2018-10-03T11:18:10.132Z,1.60
2018-10-03T11:20:13.374Z,1.50
2018-10-03T11:22:17.052Z,1.40
2018-10-03T11:24:20.659Z,1.32
2018-10-03T11:26:23.991Z,1.40
2018-10-03T11:28:27.541Z,1.40
2018-10-03T11:30:30.712Z,1.43
2018-10-03T11:32:33.900Z,1.37
2018-10-03T11:34:37.468Z,1.53
2018-10-03T11:36:40.647Z,1.40
2018-10-03T11:38:43.976Z,1.10
2018-10-03T11:40:47.188Z,1.00
2018-10-03T11:42:50.402Z,2.20
2018-10-03T11:44:53.596Z,1.10
2018-10-03T11:46:56.792Z,1.30
2018-10-03T11:49:00.174Z,0.97
2018-10-03T11:51:03.908Z,1.10
2018-10-03T11:53:07.318Z,1.67
2018-10-03T11:55:10.710Z,1.23
2018-10-03T11:57:14.897Z,1.20
2018-10-03T11:59:18.157Z,1.73
2018-10-03T12:01:21.776Z,1.22
2018-10-03T12:03:25.489Z,1.60
2018-10-03T12:05:29.035Z,1.60
2018-10-03T12:07:32.560Z,1.52
2018-10-03T12:09:36.192Z,1.60
2018-10-03T12:11:39.916Z,1.60
2018-10-03T12:13:43.519Z,1.50
2018-10-03T12:15:49.177Z,1.90
2018-10-03T12:17:52.637Z,1.60
2018-10-03T12:19:55.812Z,1.73
2018-10-03T12:21:59.848Z,1.80
2018-10-03T12:24:03.312Z,1.50
2018-10-03T12:26:06.895Z,1.40
2018-10-03T12:28:10.184Z,1.70
2018-10-03T12:30:13.348Z,1.13
2018-10-03T12:32:17.656Z,1.37
2018-10-03T12:34:20.858Z,1.00
2018-10-03T12:36:24.072Z,1.20
2018-10-03T12:38:27.246Z,1.27
2018-10-03T12:40:31.293Z,1.60
2018-10-03T12:42:34.485Z,1.43
2018-10-03T12:44:37.704Z,1.50
2018-10-03T12:46:40.895Z,1.50
2018-10-03T12:48:44.139Z,1.37
2018-10-03T12:50:47.574Z,1.00
2018-10-03T12:52:50.800Z,1.43
2018-10-03T12:54:54.066Z,1.47
2018-10-03T12:56:57.677Z,1.63
2018-10-03T12:59:01.308Z,1.00
2018-10-03T13:01:04.568Z,1.10
2018-10-03T13:03:08.328Z,1.50
2018-10-03T13:05:11.548Z,1.17
2018-10-03T13:07:14.737Z,1.00
2018-10-03T13:09:18.132Z,0.90
2018-10-03T13:11:21.860Z,0.87
2018-10-03T13:13:25.229Z,1.10
2018-10-03T13:15:28.996Z,0.70
2018-10-03T13:17:32.513Z,1.10
2018-10-03T13:19:35.889Z,1.07
2018-10-03T13:21:39.721Z,1.17
2018-10-03T13:23:42.928Z,1.73
2018-10-03T13:25:46.116Z,1.00
2018-10-03T13:27:49.355Z,1.60
2018-10-03T13:29:52.513Z,1.70
2018-10-03T13:31:55.731Z,1.33
2018-10-03T13:33:59.075Z,1.07
2018-10-03T13:36:02.273Z,0.67
2018-10-03T13:38:06.130Z,1.47
2018-10-03T13:40:09.666Z,1.47
2018-10-03T13:42:13.040Z,1.13
2018-10-03T13:44:16.200Z,1.10
2018-10-03T13:46:19.402Z,1.37
2018-10-03T13:48:22.574Z,1.10
2018-10-03T13:50:25.752Z,1.57
2018-10-03T13:52:28.941Z,1.50
2018-10-03T13:54:32.128Z,2.00
2018-10-03T13:56:35.572Z,1.73
2018-10-03T13:58:39.153Z,1.50
2018-10-03T14:00:42.341Z,2.00
2018-10-03T14:02:45.556Z,1.30
2018-10-03T14:04:49.419Z,0.93
2018-10-03T14:06:52.864Z,1.50
2018-10-03T14:08:56.129Z,1.03
2018-10-03T14:10:59.737Z,1.30
2018-10-03T14:13:03.375Z,1.10
2018-10-03T14:17:09.108Z,1.70
2018-10-03T14:19:12.888Z,1.30
2018-10-03T14:21:16.431Z,1.50
2018-10-03T14:23:20.056Z,0.97
2018-10-03T14:25:23.260Z,1.53
2018-10-03T14:27:26.444Z,1.50
2018-10-03T14:29:30.058Z,1.20
2018-10-03T14:31:34.188Z,1.87
2018-10-03T14:33:37.701Z,1.73
2018-10-03T14:35:40.884Z,1.00
2018-10-03T14:37:44.073Z,1.37
2018-10-03T14:39:47.488Z,1.47
2018-10-03T14:41:50.829Z,2.10
2018-10-03T14:43:54.014Z,1.10
2018-10-03T14:45:57.224Z,1.47
2018-10-03T14:48:00.391Z,1.27
2018-10-03T14:50:04.271Z,1.20
2018-10-03T14:52:08.223Z,1.40
2018-10-03T14:54:12.099Z,1.90
2018-10-03T14:56:15.273Z,1.70
2018-10-03T14:58:18.504Z,1.87
2018-10-03T15:00:22.200Z,1.07
2018-10-03T15:02:25.405Z,1.63
2018-10-03T15:04:28.572Z,1.53
2018-10-03T15:06:31.759Z,0.87
2018-10-03T15:08:35.173Z,0.90
2018-10-03T15:10:38.644Z,1.50
2018-10-03T15:12:42.015Z,1.63
2018-10-03T15:14:45.416Z,1.30
2018-10-03T15:16:48.696Z,1.50
2018-10-03T15:18:51.864Z,1.03
2018-10-03T15:20:55.474Z,1.40
2018-10-03T15:22:58.727Z,1.00
2018-10-03T15:25:02.207Z,1.30
2018-10-03T15:27:05.858Z,0.80
2018-10-03T15:29:09.074Z,1.83
2018-10-03T15:31:12.260Z,1.83
2018-10-03T15:33:15.456Z,1.20
2018-10-03T15:35:18.645Z,1.23
2018-10-03T15:37:22.123Z,1.73
2018-10-03T15:39:25.314Z,1.20
2018-10-03T15:41:29.842Z,1.47
2018-10-03T15:43:33.057Z,1.50
2018-10-03T15:45:36.229Z,0.90
2018-10-03T15:47:39.689Z,1.90
2018-10-03T15:49:43.217Z,1.67
2018-10-03T15:51:47.054Z,1.07
2018-10-03T15:53:50.230Z,1.13
2018-10-03T15:55:53.439Z,1.47
2018-10-03T15:57:57.228Z,1.53
2018-10-03T16:00:00.408Z,1.67
2018-10-03T16:02:03.802Z,1.50
2018-10-03T16:04:08.113Z,1.37
2018-10-03T16:06:11.371Z,1.30
2018-10-03T16:08:14.552Z,1.20
2018-10-03T16:10:17.750Z,1.23
2018-10-03T16:12:20.932Z,1.40
2018-10-03T16:14:24.120Z,1.10
2018-10-03T16:16:27.557Z,1.47
2018-10-03T16:18:30.812Z,1.20
2018-10-03T16:20:34.384Z,2.23
2018-10-03T16:22:37.736Z,1.30
2018-10-03T16:24:40.900Z,1.70
2018-10-03T16:26:44.143Z,1.13
2018-10-03T16:28:47.480Z,1.30
2018-10-03T16:30:50.681Z,1.30
2018-10-03T16:32:54.116Z,1.10
2018-10-03T16:34:57.320Z,1.27
2018-10-03T16:37:00.541Z,1.33
2018-10-03T16:39:05.325Z,1.73
2018-10-03T16:41:09.079Z,1.40
2018-10-03T16:43:12.237Z,1.00
2018-10-03T16:45:15.752Z,1.47
2018-10-03T16:47:19.385Z,0.90
2018-10-03T16:49:22.565Z,1.27
2018-10-03T16:51:26.180Z,1.70
2018-10-03T16:53:29.387Z,0.97
2018-10-03T16:55:32.584Z,1.23
2018-10-03T16:57:35.895Z,1.07
2018-10-03T16:59:39.416Z,1.30
2018-10-03T17:01:42.597Z,1.13
2018-10-03T17:03:45.921Z,1.10
2018-10-03T17:05:49.800Z,1.40
2018-10-03T17:07:53.172Z,1.83
2018-10-03T17:09:56.346Z,1.60
2018-10-03T17:11:59.553Z,1.40
2018-10-03T17:14:27.506Z,1.17
2018-10-03T17:16:30.696Z,1.30
2018-10-03T17:18:33.883Z,1.60
2018-10-03T17:20:37.076Z,1.37
2018-10-03T17:22:40.793Z,1.67
2018-10-03T17:24:44.180Z,1.30
2018-10-03T17:26:47.427Z,1.30
2018-10-03T17:28:50.648Z,1.33
2018-10-03T17:30:53.852Z,2.10
2018-10-03T17:32:57.384Z,1.87
2018-10-03T17:35:00.584Z,1.50
2018-10-03T17:37:03.980Z,1.30
2018-10-03T17:39:07.990Z,1.33
2018-10-03T17:41:11.199Z,1.53
2018-10-03T17:43:14.368Z,1.50
2018-10-03T17:45:17.732Z,1.70
2018-10-03T17:47:20.961Z,1.50
2018-10-03T17:49:24.523Z,1.40
2018-10-03T17:51:27.751Z,1.50
2018-10-03T17:53:30.978Z,1.73
2018-10-03T17:55:34.189Z,2.10
2018-10-03T17:57:37.420Z,1.70
2018-10-03T17:59:40.911Z,1.87
2018-10-03T18:01:49.292Z,1.10
2018-10-03T18:03:52.488Z,1.13
2018-10-03T18:05:55.712Z,1.63
2018-10-03T18:07:58.889Z,1.43
2018-10-03T18:10:02.239Z,1.40
2018-10-03T18:12:05.876Z,1.50
2018-10-03T18:14:09.078Z,2.07
2018-10-03T18:16:12.320Z,1.80
2018-10-03T18:18:15.518Z,1.07
2018-10-03T18:20:18.700Z,1.40
2018-10-03T18:22:21.905Z,1.23
2018-10-03T18:24:25.119Z,1.40
2018-10-03T18:26:28.304Z,2.07
2018-10-03T18:28:32.065Z,1.47
2018-10-03T18:30:35.315Z,1.90
2018-10-03T18:32:38.507Z,2.07
2018-10-03T18:34:42.045Z,1.40
2018-10-03T18:36:45.582Z,3.30
2018-10-03T18:38:49.198Z,1.37
2018-10-03T18:40:52.708Z,2.00
2018-10-03T18:42:55.894Z,1.67
2018-10-03T18:44:59.173Z,1.70
2018-10-03T18:47:02.558Z,1.80
2018-10-03T18:49:06.348Z,1.77
2018-10-03T18:51:09.788Z,1.70
2018-10-03T18:53:12.969Z,2.27
2018-10-03T18:55:16.454Z,1.40
2018-10-03T18:57:19.685Z,1.10
2018-10-03T18:59:23.013Z,1.50
2018-10-03T19:01:26.224Z,2.00
2018-10-03T19:03:29.409Z,1.80
2018-10-03T19:05:32.659Z,1.53
2018-10-03T19:07:36.240Z,2.20
2018-10-03T19:09:39.521Z,2.07
2018-10-03T19:11:42.713Z,1.70
2018-10-03T19:13:46.248Z,1.90
2018-10-03T19:15:49.686Z,1.50
2018-10-03T19:17:52.909Z,1.17
2018-10-03T19:19:56.174Z,1.50
2018-10-03T19:21:59.535Z,1.57
2018-10-03T19:24:02.762Z,2.20
2018-10-03T19:26:05.963Z,2.00
2018-10-03T19:28:09.471Z,1.80
2018-10-03T19:30:12.704Z,1.87
2018-10-03T19:32:15.881Z,1.60
2018-10-03T19:34:19.124Z,1.90
2018-10-03T19:36:22.769Z,1.80
2018-10-03T19:38:25.965Z,1.70
2018-10-03T19:40:29.492Z,2.13
2018-10-03T19:42:32.920Z,2.90
2018-10-03T19:44:36.103Z,2.07
2018-10-03T19:46:39.283Z,1.60
2018-10-03T19:48:42.517Z,1.73
2018-10-03T19:50:45.708Z,1.90
2018-10-03T19:52:48.885Z,1.60
2018-10-03T19:54:53.047Z,1.07
2018-10-03T19:56:56.239Z,1.43
2018-10-03T19:58:59.753Z,2.33
2018-10-03T20:01:02.981Z,1.40
2018-10-03T20:03:06.536Z,1.70
2018-10-03T20:05:10.132Z,1.70
2018-10-03T20:07:13.300Z,1.23
2018-10-03T20:09:16.491Z,1.30
2018-10-03T20:11:20.059Z,1.77
2018-10-03T20:13:23.383Z,2.30
2018-10-03T20:15:26.550Z,1.13
2018-10-03T20:17:29.813Z,1.60
2018-10-03T20:19:33.004Z,1.90
2018-10-03T20:21:36.206Z,2.40
2018-10-03T20:23:39.757Z,1.83
2018-10-03T20:25:43.004Z,1.70
2018-10-03T20:27:46.233Z,1.60
2018-10-03T20:29:49.465Z,1.40
2018-10-03T20:31:52.677Z,1.10
2018-10-03T20:33:55.844Z,1.57
2018-10-03T20:35:59.031Z,1.33
2018-10-03T20:38:02.405Z,2.40
2018-10-03T20:40:05.948Z,1.63
2018-10-03T20:42:09.233Z,1.40
2018-10-03T20:44:12.411Z,1.60
2018-10-03T20:46:16.341Z,1.70
2018-10-03T20:48:19.676Z,2.40
2018-10-03T20:50:23.040Z,1.63
2018-10-03T20:52:26.288Z,1.40
2018-10-03T20:54:29.791Z,1.13
2018-10-03T20:56:33.461Z,1.77
2018-10-03T20:58:36.644Z,1.57
2018-10-03T21:00:40.084Z,1.70
2018-10-03T21:02:43.346Z,1.67
2018-10-03T21:04:46.866Z,1.90
2018-10-03T21:06:50.070Z,1.27
2018-10-03T21:08:53.591Z,2.17
2018-10-03T21:10:56.780Z,1.90
2018-10-03T21:13:00.002Z,1.60
2018-10-03T21:15:03.188Z,1.77
2018-10-03T21:17:06.382Z,2.03
2018-10-03T21:19:10.206Z,1.13
2018-10-03T21:21:13.381Z,1.53
2018-10-03T21:23:16.665Z,1.63
2018-10-03T21:25:20.177Z,1.43
2018-10-03T21:27:23.397Z,1.40
2018-10-03T21:29:26.875Z,1.70
2018-10-03T21:31:30.352Z,0.97
2018-10-03T21:33:33.593Z,1.67
2018-10-03T21:35:36.784Z,1.50
2018-10-03T21:37:40.344Z,1.73
2018-10-03T21:39:43.558Z,2.43
2018-10-03T21:41:46.856Z,1.10
2018-10-03T21:43:50.165Z,1.73
2018-10-03T21:45:53.645Z,1.10
2018-10-03T21:47:56.857Z,1.43
2018-10-03T21:50:00.272Z,1.43
2018-10-03T21:52:03.541Z,2.20
2018-10-03T21:54:06.764Z,1.87
2018-10-03T21:56:09.944Z,1.50
2018-10-03T21:58:13.153Z,1.80
2018-10-03T22:00:16.332Z,1.60
2018-10-03T22:02:19.532Z,1.50
2018-10-03T22:04:22.708Z,1.30
2018-10-03T22:06:26.408Z,1.60
2018-10-03T22:08:29.896Z,2.10
2018-10-03T22:10:33.060Z,1.20
2018-10-03T22:12:37.281Z,1.97
2018-10-03T22:14:40.512Z,1.37
2018-10-03T22:16:43.684Z,1.20
2018-10-03T22:18:46.900Z,1.90
2018-10-03T22:20:50.095Z,1.70
2018-10-03T22:22:53.395Z,2.03
2018-10-03T22:24:56.800Z,1.90
2018-10-03T22:26:59.984Z,1.47
2018-10-03T22:29:03.516Z,2.00
2018-10-03T22:31:06.992Z,1.47
2018-10-03T22:33:10.361Z,1.43
2018-10-03T22:35:13.555Z,1.60
2018-10-03T22:37:16.969Z,2.27
2018-10-03T22:39:20.159Z,1.53
2018-10-03T22:41:23.325Z,2.43
2018-10-03T22:43:26.840Z,2.40
2018-10-03T22:45:30.037Z,1.83
2018-10-03T22:47:33.224Z,2.37
2018-10-03T22:49:36.429Z,3.07
2018-10-03T22:51:39.975Z,1.90
2018-10-03T22:53:43.153Z,1.60
2018-10-03T22:55:46.585Z,2.33
2018-10-03T22:57:49.949Z,1.70
2018-10-03T22:59:53.149Z,1.77
2018-10-03T23:01:56.736Z,2.53
2018-10-03T23:04:00.006Z,2.57
2018-10-03T23:06:03.495Z,2.20
2018-10-03T23:08:07.254Z,2.07
2018-10-03T23:10:10.493Z,2.10
2018-10-03T23:12:13.693Z,2.57
2018-10-03T23:14:16.882Z,2.30
2018-10-03T23:16:20.252Z,2.00
2018-10-03T23:18:23.444Z,1.90
2018-10-03T23:20:27.007Z,2.00
2018-10-03T23:22:30.384Z,1.87
2018-10-03T23:24:33.603Z,2.57
2018-10-03T23:26:37.565Z,2.40
2018-10-03T23:28:40.785Z,2.10
2018-10-03T23:30:43.948Z,1.23
2018-10-03T23:32:47.641Z,2.53
2018-10-03T23:34:50.808Z,1.80
2018-10-03T23:36:54.328Z,1.30
2018-10-03T23:38:57.531Z,2.53
2018-10-03T23:41:00.700Z,2.20
2018-10-03T23:43:04.202Z,1.73
2018-10-03T23:45:07.592Z,2.23
2018-10-03T23:47:10.776Z,1.60
2018-10-03T23:49:13.942Z,1.67
2018-10-03T23:51:17.465Z,1.10
2018-10-03T23:53:20.641Z,1.60
2018-10-03T23:55:24.100Z,2.00
2018-10-03T23:57:27.416Z,1.17
2018-10-03T23:59:30.798Z,1.73
